Time;durP1;ratioP1;P1;durP2;ratioP2;P2;SDS_P1;SDS_P2;PMS_P1;PMS_P2;Temp;Humidity;BMP_temperature;BMP_pressure;BME280_temperature;BME280_humidity;BME280_pressure;Samples;Min_cycle;Max_cycle;Signal;HPM_P1;HPM_P2
2022/11/02 00:00:40;;;;;;;;;;;;;;;-143.57;100.00;50923.31;5064181;28;20023;-67
2022/11/02 00:03:06;;;;;;;;;;;;;;;-143.57;100.00;50957.09;5061590;28;20384;-67
2022/11/02 00:05:34;;;;;;;;;;;;;;;-143.57;100.00;50961.06;5058001;28;19928;-67
2022/11/02 00:08:01;;;;;;;;;;;;;;;-143.57;100.00;50949.16;5058540;28;20492;-67
2022/11/02 00:10:28;;;;;;;;;;;;;;;-143.57;100.00;50986.91;5058889;28;19952;-68
2022/11/02 00:12:55;;;;;;;;;;;;;;;-143.57;100.00;50961.06;5060198;28;19932;-68
2022/11/02 00:15:23;;;;;;;;;;;;;;;-143.57;100.00;50969.03;5059289;28;19928;-67
2022/11/02 00:17:52;;;;;;;;;;;;;;;-143.57;100.00;50953.13;5062098;28;19932;-68
2022/11/02 00:20:19;;;;;;;;;;;;;;;-143.57;100.00;50976.97;5060028;28;19936;-68
2022/11/02 00:22:48;;;;;;;;;;;;;;;-143.57;100.00;51016.72;5057648;28;19929;-68
2022/11/02 00:25:17;;;;;;;;;;;;;;;-143.57;100.00;50919.34;5058354;28;19932;-68
2022/11/02 00:27:43;;;;;;;;;;;;;;;-143.57;100.00;50980.97;5061686;28;21257;-68
2022/11/02 00:30:13;;;;;;;;;;;;;;;-143.57;100.00;50965.06;5058564;28;19994;-68
2022/11/02 00:32:39;;;;;;;;;;;;;;;-143.57;100.00;50996.84;5057901;28;20289;-68
2022/11/02 00:35:06;;;;;;;;;;;;;;;-143.57;100.00;50937.22;5058160;28;19993;-68
2022/11/02 00:37:33;;;;;;;;;;;;;;;-143.57;100.00;50969.03;5060294;28;19924;-67
2022/11/02 00:40:00;;;;;;;;;;;;;;;-143.57;100.00;50961.06;5060325;28;20468;-67
2022/11/02 00:42:27;;;;;;;;;;;;;;;-143.57;100.00;50975.00;5059614;28;20011;-67
2022/11/02 00:44:55;;;;;;;;;;;;;;;-143.57;100.00;50935.25;5059535;28;20031;-67
2022/11/02 00:47:21;;;;;;;;;;;;;;;-143.57;100.00;50980.97;5058460;28;20007;-67
2022/11/02 00:49:48;;;;;;;;;;;;;;;-143.57;100.00;50998.84;5085011;28;19925;-67
2022/11/02 00:52:15;;;;;;;;;;;;;;;-143.57;100.00;50945.19;5056931;28;20410;-67
2022/11/02 00:54:46;;;;;;;;;;;;;;;-143.57;100.00;50945.19;5057457;28;19944;-68
2022/11/02 00:57:13;;;;;;;;;;;;;;;-143.57;100.00;51004.81;5061649;28;19924;-67
2022/11/02 00:59:39;;;;;;;;;;;;;;;-143.57;100.00;50980.97;5058918;28;19935;-67
2022/11/02 01:02:06;;;;;;;;;;;;;;;-143.57;100.00;50965.06;5057882;28;19966;-67
2022/11/02 01:04:33;;;;;;;;;;;;;;;-143.57;100.00;50921.31;5068076;28;20340;-68
2022/11/02 01:07:00;;;;;;;;;;;;;;;-143.57;100.00;50947.16;5072035;28;20646;-68
2022/11/02 01:09:27;;;;;;;;;;;;;;;-143.57;100.00;50941.19;5101590;28;19966;-67
2022/11/02 01:11:54;;;;;;;;;;;;;;;-143.57;100.00;50957.09;5069230;28;20023;-67
2022/11/02 01:14:20;;;;;;;;;;;;;;;-143.57;100.00;50992.88;5071860;28;20654;-67
2022/11/02 01:16:47;;;;;;;;;;;;;;;-143.57;100.00;50988.91;5083837;28;19993;-67
2022/11/02 01:19:14;;;;;;;;;;;;;;;-143.57;100.00;50988.91;5105856;28;19990;-67
2022/11/02 01:21:41;;;;;;;;;;;;;;;-143.57;100.00;50953.13;5070690;28;19998;-67
2022/11/02 01:24:07;;;;;;;;;;;;;;;-143.57;100.00;50937.22;5069247;28;20431;-67
2022/11/02 01:26:34;;;;;;;;;;;;;;;-143.57;100.00;50969.03;5078078;28;19939;-67
2022/11/02 01:29:01;;;;;;;;;;;;;;;-143.57;100.00;50992.88;5072247;28;19982;-67
2022/11/02 01:31:27;;;;;;;;;;;;;;;-143.57;100.00;50980.97;5076345;28;19977;-67
2022/11/02 01:33:54;;;;;;;;;;;;;;;-143.57;100.00;50984.94;5072328;28;19925;-67
2022/11/02 01:36:21;;;;;;;;;;;;;;;-143.57;100.00;50984.94;5062052;28;20478;-67
2022/11/02 01:38:53;;;;;;;;;;;;;;;-143.57;100.00;50941.19;5087343;27;20013;-67
2022/11/02 01:41:20;;;;;;;;;;;;;;;-143.57;100.00;50973.00;5066828;28;19928;-67
2022/11/02 01:43:48;;;;;;;;;;;;;;;-143.57;100.00;50996.84;5066928;28;19924;-67
2022/11/02 01:46:17;;;;;;;;;;;;;;;-143.57;100.00;50984.94;5063993;28;20458;-67
2022/11/02 01:48:44;;;;;;;;;;;;;;;-143.57;100.00;50957.09;5063364;28;19958;-67
2022/11/02 01:51:18;;;;;;;;;;;;;;;-143.57;100.00;50984.94;5061345;28;20031;-67
2022/11/02 01:53:46;;;;;;;;;;;;;;;-143.57;100.00;50969.03;5088249;27;19938;-67
2022/11/02 01:56:15;;;;;;;;;;;;;;;-143.57;100.00;50957.09;5064178;28;19932;-67
2022/11/02 01:58:44;;;;;;;;;;;;;;;-143.57;100.00;50988.91;5065552;28;19928;-67
2022/11/02 02:01:11;;;;;;;;;;;;;;;-143.57;100.00;50963.06;5060509;28;19928;-67
2022/11/02 02:03:38;;;;;;;;;;;;;;;-143.57;100.00;50996.84;5063208;28;20432;-67
2022/11/02 02:06:16;;;;;;;;;;;;;;;-143.57;100.00;50933.25;5059400;28;19992;-67
2022/11/02 02:08:48;;;;;;;;;;;;;;;-143.57;100.00;50969.03;5062772;28;19924;-67
2022/11/02 02:11:28;;;;;;;;;;;;;;;-143.57;100.00;51008.78;5060585;28;19925;-67
2022/11/02 02:13:58;;;;;;;;;;;;;;;-143.57;100.00;50969.03;5058827;28;19986;-67
2022/11/02 02:16:30;;;;;;;;;;;;;;;-143.57;100.00;50980.97;5091247;27;19936;-67
2022/11/02 02:19:03;;;;;;;;;;;;;;;-143.57;100.00;50953.13;5060804;28;19932;-67
2022/11/02 02:21:39;;;;;;;;;;;;;;;-143.57;100.00;50969.03;5060539;28;19932;-67
2022/11/02 02:24:15;;;;;;;;;;;;;;;-143.57;100.00;50986.91;5057962;28;20379;-67
2022/11/02 02:26:45;;;;;;;;;;;;;;;-143.57;100.00;50955.13;5060008;28;19936;-67
2022/11/02 02:29:20;;;;;;;;;;;;;;;-143.57;100.00;50965.06;5059884;28;19928;-67
2022/11/02 02:31:53;;;;;;;;;;;;;;;-143.57;100.00;50969.03;5061112;28;19937;-67
2022/11/02 02:34:22;;;;;;;;;;;;;;;-143.57;100.00;51000.84;5058752;28;19928;-67
2022/11/02 02:36:48;;;;;;;;;;;;;;;-143.57;100.00;50957.09;5062006;28;21269;-67
2022/11/02 02:39:20;;;;;;;;;;;;;;;-143.57;100.00;50984.94;5061455;28;19928;-67
2022/11/02 02:41:53;;;;;;;;;;;;;;;-143.57;100.00;50961.06;5061119;28;19978;-68
2022/11/02 02:44:21;;;;;;;;;;;;;;;-143.57;100.00;50988.91;5063836;28;20441;-67
2022/11/02 02:47:18;;;;;;;;;;;;;;;-143.57;100.00;50947.16;5091652;27;19983;-67
2022/11/02 02:49:49;;;;;;;;;;;;;;;-143.57;100.00;50973.00;5064086;27;19932;-67
2022/11/02 02:52:17;;;;;;;;;;;;;;;-143.57;100.00;50980.97;5061087;28;19928;-67
2022/11/02 02:54:45;;;;;;;;;;;;;;;-143.57;100.00;50971.03;5086515;27;20324;-66
2022/11/02 02:57:16;;;;;;;;;;;;;;;-143.57;100.00;50986.91;5096667;27;19929;-67
2022/11/02 02:59:44;;;;;;;;;;;;;;;-143.57;100.00;50980.97;5059442;28;20028;-67
2022/11/02 03:02:20;;;;;;;;;;;;;;;-143.57;100.00;50949.16;5060371;28;19929;-67
2022/11/02 03:04:47;;;;;;;;;;;;;;;-143.57;100.00;50976.97;5059554;28;19932;-67
2022/11/02 03:07:18;;;;;;;;;;;;;;;-143.57;100.00;50961.06;5063447;28;20001;-67
2022/11/02 03:09:49;;;;;;;;;;;;;;;-143.57;100.00;50984.94;5067090;28;21076;-67
2022/11/02 03:12:31;;;;;;;;;;;;;;;-143.57;100.00;50982.94;5059518;28;19932;-67
2022/11/02 03:15:10;;;;;;;;;;;;;;;-143.57;100.00;51024.69;5058838;28;19932;-67
2022/11/02 03:17:56;;;;;;;;;;;;;;;-143.57;100.00;50992.88;5083313;27;19929;-67
2022/11/02 03:20:38;;;;;;;;;;;;;;;-143.57;100.00;50978.97;5058218;28;19928;-67
2022/11/02 03:23:05;;;;;;;;;;;;;;;-143.57;100.00;50965.06;5057259;28;20036;-67
2022/11/02 03:25:46;;;;;;;;;;;;;;;-143.57;100.00;50984.94;5059659;28;19932;-67
2022/11/02 03:28:40;;;;;;;;;;;;;;;-143.57;100.00;51008.78;5057920;28;20324;-67
2022/11/02 03:31:20;;;;;;;;;;;;;;;-143.57;100.00;50973.00;5018597;28;19936;-67
2022/11/02 03:34:04;;;;;;;;;;;;;;;-143.57;100.00;50976.97;5058924;28;19928;-66
2022/11/02 03:36:54;;;;;;;;;;;;;;;-143.57;100.00;50965.06;5057506;28;19928;-67
2022/11/02 03:39:29;;;;;;;;;;;;;;;-143.57;100.00;50996.84;5053311;28;19995;-67
2022/11/02 03:41:59;;;;;;;;;;;;;;;-143.57;100.00;50976.97;5060594;28;19956;-67
2022/11/02 03:44:27;;;;;;;;;;;;;;;-143.57;100.00;50984.94;5092002;27;19997;-66
2022/11/02 03:46:58;;;;;;;;;;;;;;;-143.57;100.00;50992.88;5043483;28;19928;-67
2022/11/02 03:49:27;;;;;;;;;;;;;;;-143.57;100.00;50988.91;5059089;28;19931;-67
2022/11/02 03:51:55;;;;;;;;;;;;;;;-143.57;100.00;50976.97;5062269;28;20037;-67
2022/11/02 03:54:32;;;;;;;;;;;;;;;-143.57;100.00;50998.84;5060158;28;19939;-67
2022/11/02 03:57:02;;;;;;;;;;;;;;;-143.57;100.00;50957.09;5063307;28;20384;-67
2022/11/02 03:59:34;;;;;;;;;;;;;;;-143.57;100.00;50998.84;5059072;28;19986;-67
2022/11/02 04:02:01;;;;;;;;;;;;;;;-143.57;100.00;50941.19;5059646;28;19928;-67
2022/11/02 04:04:29;;;;;;;;;;;;;;;-143.57;100.00;50961.06;5057472;28;19929;-65
2022/11/02 04:06:56;;;;;;;;;;;;;;;-143.57;100.00;50969.03;5059922;28;19942;-67
2022/11/02 04:09:23;;;;;;;;;;;;;;;-143.57;100.00;51004.81;5059806;28;19928;-66
2022/11/02 04:14:38;;;;;;;;;;;;;;;-143.57;100.00;50992.88;5058861;28;19932;-66
2022/11/02 04:20:04;;;;;;;;;;;;;;;-143.57;100.00;50992.88;5057394;28;19962;-68
2022/11/02 04:25:18;;;;;;;;;;;;;;;-143.57;100.00;51020.72;5057064;28;19932;-68
2022/11/02 04:28:08;;;;;;;;;;;;;;;-143.57;100.00;50980.97;5059859;28;19931;-68
2022/11/02 04:30:40;;;;;;;;;;;;;;;-143.57;100.00;50976.97;5059927;28;19928;-67
2022/11/02 04:36:02;;;;;;;;;;;;;;;-143.57;100.00;50975.00;5062495;28;19928;-66
2022/11/02 04:38:39;;;;;;;;;;;;;;;-143.57;100.00;50976.97;5088458;28;19939;-66
2022/11/02 04:44:07;;;;;;;;;;;;;;;-143.57;100.00;50975.00;5063269;28;19932;-66
2022/11/02 04:46:34;;;;;;;;;;;;;;;-143.57;100.00;51010.78;5059908;28;19981;-66
2022/11/02 04:49:02;;;;;;;;;;;;;;;-143.57;100.00;51020.72;5057795;28;20401;-66
2022/11/02 04:51:30;;;;;;;;;;;;;;;-143.57;100.00;50996.84;5061024;28;19928;-66
2022/11/02 04:53:57;;;;;;;;;;;;;;;-143.57;100.00;50953.13;5041226;28;20548;-66
2022/11/02 04:56:25;;;;;;;;;;;;;;;-143.57;100.00;50992.88;5058815;28;19936;-67
2022/11/02 04:58:55;;;;;;;;;;;;;;;-143.57;100.00;50988.91;5063278;28;20688;-66
2022/11/02 05:01:23;;;;;;;;;;;;;;;-143.57;100.00;50984.94;5063318;28;19936;-66
2022/11/02 05:03:52;;;;;;;;;;;;;;;-143.57;100.00;50996.84;5067841;28;20386;-66
2022/11/02 05:06:19;;;;;;;;;;;;;;;-143.57;100.00;50988.91;5062340;28;19936;-66
2022/11/02 05:08:47;;;;;;;;;;;;;;;-143.57;100.00;50973.00;5061438;28;19935;-67
2022/11/02 05:11:14;;;;;;;;;;;;;;;-143.57;100.00;50984.94;5059905;28;20018;-66
2022/11/02 05:13:43;;;;;;;;;;;;;;;-143.57;100.00;50992.88;5061945;28;19964;-66
2022/11/02 05:16:11;;;;;;;;;;;;;;;-143.57;100.00;51024.69;5062678;28;19932;-66
2022/11/02 05:18:38;;;;;;;;;;;;;;;-143.57;100.00;50996.84;5089778;27;20714;-66
2022/11/02 05:21:06;;;;;;;;;;;;;;;-143.57;100.00;51022.69;5061085;28;20312;-67
2022/11/02 05:23:33;;;;;;;;;;;;;;;-143.57;100.00;50992.88;5056694;28;19928;-67
2022/11/02 05:26:04;;;;;;;;;;;;;;;-143.57;100.00;50973.00;5065188;28;19924;-66
2022/11/02 05:28:33;;;;;;;;;;;;;;;-143.57;100.00;50982.94;5063564;28;20047;-66
2022/11/02 05:31:02;;;;;;;;;;;;;;;-143.57;100.00;51006.78;5062544;28;19928;-65
2022/11/02 05:33:31;;;;;;;;;;;;;;;-143.57;100.00;51020.72;5063124;28;20068;-66
2022/11/02 05:36:03;;;;;;;;;;;;;;;-143.57;100.00;50984.94;5061816;28;20420;-66
2022/11/02 05:38:32;;;;;;;;;;;;;;;-143.57;100.00;50978.97;5062846;28;19935;-66
2022/11/02 05:41:00;;;;;;;;;;;;;;;-143.57;100.00;50988.91;5081522;27;20445;-65
2022/11/02 05:43:31;;;;;;;;;;;;;;;-143.57;100.00;50998.84;5056020;28;20137;-65
2022/11/02 05:46:00;;;;;;;;;;;;;;;-143.57;100.00;50992.88;5058956;28;19925;-65
2022/11/02 05:48:29;;;;;;;;;;;;;;;-143.57;100.00;50986.91;5062349;28;20035;-66
2022/11/02 05:50:57;;;;;;;;;;;;;;;-143.57;100.00;50996.84;5061050;28;19951;-66
2022/11/02 05:53:25;;;;;;;;;;;;;;;-143.57;100.00;51012.75;5060431;28;20015;-66
2022/11/02 05:55:56;;;;;;;;;;;;;;;-143.57;100.00;51008.78;5060425;28;19931;-66
2022/11/02 05:58:23;;;;;;;;;;;;;;;-143.57;100.00;50984.94;5062358;28;19935;-66
2022/11/02 06:00:49;;;;;;;;;;;;;;;-143.57;100.00;50992.88;5059518;28;19982;-66
2022/11/02 06:03:16;;;;;;;;;;;;;;;-143.57;100.00;51018.72;5062398;28;19933;-66
2022/11/02 06:05:43;;;;;;;;;;;;;;;-143.57;100.00;50994.88;5062620;28;20464;-66
2022/11/02 06:08:10;;;;;;;;;;;;;;;-143.57;100.00;51026.69;5061138;28;19962;-65
2022/11/02 06:10:37;;;;;;;;;;;;;;;-143.57;100.00;50984.94;5065765;28;20005;-66
2022/11/02 06:13:04;;;;;;;;;;;;;;;-143.57;100.00;51012.75;5061719;28;19986;-66
2022/11/02 06:15:31;;;;;;;;;;;;;;;-143.57;100.00;50992.88;5061721;28;20459;-66
2022/11/02 06:17:58;;;;;;;;;;;;;;;-143.57;100.00;50996.84;5060237;28;20175;-66
2022/11/02 06:20:25;;;;;;;;;;;;;;;-143.57;100.00;51004.81;5061350;28;19936;-66
2022/11/02 06:22:52;;;;;;;;;;;;;;;-143.57;100.00;50994.88;5059573;28;19925;-66
2022/11/02 06:25:18;;;;;;;;;;;;;;;-143.57;100.00;51016.72;5060346;28;20001;-66
2022/11/02 06:27:52;;;;;;;;;;;;;;;-143.57;100.00;51036.63;5058380;28;20022;-65
2022/11/02 06:30:20;;;;;;;;;;;;;;;-143.57;100.00;50996.84;5060574;28;19963;-66
2022/11/02 06:32:50;;;;;;;;;;;;;;;-143.57;100.00;50961.06;5058917;28;20391;-66
2022/11/02 06:35:18;;;;;;;;;;;;;;;-143.57;100.00;51016.72;5060870;28;19932;-66
2022/11/02 06:37:45;;;;;;;;;;;;;;;-143.57;100.00;50976.97;5065201;28;19947;-66
2022/11/02 06:40:12;;;;;;;;;;;;;;;-143.57;100.00;50992.88;5067622;28;19932;-66
2022/11/02 06:42:39;;;;;;;;;;;;;;;-143.57;100.00;51042.56;5060926;28;19964;-65
2022/11/02 06:45:22;;;;;;;;;;;;;;;-143.57;100.00;50992.88;5060722;28;19935;-66
2022/11/02 06:47:49;;;;;;;;;;;;;;;-143.57;100.00;51008.78;5061076;28;20013;-66
2022/11/02 06:50:15;;;;;;;;;;;;;;;-143.57;100.00;51028.66;5061063;28;20320;-66
2022/11/02 06:52:43;;;;;;;;;;;;;;;-143.57;100.00;51004.81;5062020;28;19959;-66
2022/11/02 06:55:10;;;;;;;;;;;;;;;-143.57;100.00;51012.75;5061501;28;19936;-66
2022/11/02 06:57:37;;;;;;;;;;;;;;;-143.57;100.00;51036.63;5061818;28;19964;-69
2022/11/02 07:00:05;;;;;;;;;;;;;;;-143.57;100.00;51032.63;5060905;28;19956;-64
2022/11/02 07:02:32;;;;;;;;;;;;;;;-143.57;100.00;51032.63;5061345;28;19963;-65
2022/11/02 07:04:59;;;;;;;;;;;;;;;-143.57;100.00;51008.78;5062969;28;19932;-64
2022/11/02 07:07:25;;;;;;;;;;;;;;;-143.57;100.00;51024.69;5065657;28;19932;-65
2022/11/02 07:09:52;;;;;;;;;;;;;;;-143.57;100.00;51020.72;5059245;28;20604;-65
2022/11/02 07:12:18;;;;;;;;;;;;;;;-143.57;100.00;51016.72;5060610;28;20052;-65
2022/11/02 07:14:48;;;;;;;;;;;;;;;-143.57;100.00;50976.97;5059158;28;21281;-64
2022/11/02 07:17:15;;;;;;;;;;;;;;;-143.57;100.00;51012.75;5060308;28;19982;-64
2022/11/02 07:19:41;;;;;;;;;;;;;;;-143.57;100.00;50976.97;5059703;28;20322;-64
2022/11/02 07:22:08;;;;;;;;;;;;;;;-143.57;100.00;51008.78;5057450;28;20628;-65
2022/11/02 07:24:35;;;;;;;;;;;;;;;-143.57;100.00;50982.94;5063201;28;19959;-64
2022/11/02 07:27:01;;;;;;;;;;;;;;;-143.57;100.00;51016.72;5061923;28;20015;-65
2022/11/02 07:29:28;;;;;;;;;;;;;;;-143.57;100.00;51048.53;5059197;28;20019;-65
2022/11/02 07:31:55;;;;;;;;;;;;;;;-143.57;100.00;51004.81;5062633;28;19936;-65
2022/11/02 07:34:22;;;;;;;;;;;;;;;-143.57;100.00;51004.81;5058862;28;19928;-66
2022/11/02 07:36:48;;;;;;;;;;;;;;;-143.57;100.00;51022.69;5066882;28;19928;-64
2022/11/02 07:39:16;;;;;;;;;;;;;;;-143.57;100.00;50986.91;5065377;28;19924;-65
2022/11/02 07:41:43;;;;;;;;;;;;;;;-143.57;100.00;50988.91;5060511;28;19932;-65
2022/11/02 07:44:17;;;;;;;;;;;;;;;-143.57;100.00;51040.59;5061339;28;19924;-65
2022/11/02 07:46:52;;;;;;;;;;;;;;;-143.57;100.00;51008.78;5058766;28;19937;-65
2022/11/02 07:49:19;;;;;;;;;;;;;;;-143.57;100.00;51004.81;5061002;28;19924;-65
2022/11/02 07:51:47;;;;;;;;;;;;;;;-143.57;100.00;50982.94;5057861;28;19928;-65
2022/11/02 07:54:13;;;;;;;;;;;;;;;-143.57;100.00;51046.56;5058502;28;21287;-65
2022/11/02 07:56:40;;;;;;;;;;;;;;;-143.57;100.00;51010.78;5060001;28;20729;-65
2022/11/02 07:59:09;;;;;;;;;;;;;;;-143.57;100.00;50984.94;5056921;28;19929;-65
2022/11/02 08:01:35;;;;;;;;;;;;;;;-143.57;100.00;51008.78;5067530;28;19931;-65
2022/11/02 08:04:02;;;;;;;;;;;;;;;-143.57;100.00;50988.91;5057817;28;19928;-66
2022/11/02 08:06:29;;;;;;;;;;;;;;;-143.57;100.00;50996.84;5059756;28;19928;-65
2022/11/02 08:08:55;;;;;;;;;;;;;;;-143.57;100.00;50988.91;5057822;28;19924;-66
2022/11/02 08:11:22;;;;;;;;;;;;;;;-143.57;100.00;51000.84;5058802;28;20050;-65
2022/11/02 08:13:48;;;;;;;;;;;;;;;-143.57;100.00;51008.78;5057182;28;19955;-65
2022/11/02 08:16:15;;;;;;;;;;;;;;;-143.57;100.00;51032.63;5059098;28;20416;-64
2022/11/02 08:18:42;;;;;;;;;;;;;;;-143.57;100.00;51006.78;5057806;28;20017;-64
2022/11/02 08:21:08;;;;;;;;;;;;;;;-143.57;100.00;51030.66;5059634;28;20391;-64
2022/11/02 08:23:35;;;;;;;;;;;;;;;-143.57;100.00;51028.66;5058276;28;19928;-64
2022/11/02 08:26:01;;;;;;;;;;;;;;;-143.57;100.00;50976.97;5057183;28;19936;-64
2022/11/02 08:28:35;;;;;;;;;;;;;;;-143.57;100.00;51008.78;5064800;28;20003;-64
2022/11/02 08:31:02;;;;;;;;;;;;;;;-143.57;100.00;51022.69;5058092;28;19960;-65
2022/11/02 08:33:29;;;;;;;;;;;;;;;-143.57;100.00;51024.69;5068169;28;19925;-64
2022/11/02 08:35:59;;;;;;;;;;;;;;;-143.57;100.00;51012.75;5062246;28;19928;-65
2022/11/02 08:38:26;;;;;;;;;;;;;;;-143.57;100.00;51024.69;5060963;28;20028;-65
2022/11/02 08:40:53;;;;;;;;;;;;;;;-143.57;100.00;51008.78;5058419;28;19928;-65
2022/11/02 08:43:22;;;;;;;;;;;;;;;-143.57;100.00;51032.63;5060784;28;20543;-65
2022/11/02 08:45:49;;;;;;;;;;;;;;;-143.57;100.00;51024.69;5058581;28;19986;-65
2022/11/02 08:48:35;;;;;;;;;;;;;;;-143.57;100.00;51004.81;5062908;28;19935;-64
2022/11/02 08:51:04;;;;;;;;;;;;;;;-143.57;100.00;50973.00;5063393;28;19932;-67
2022/11/02 08:53:31;;;;;;;;;;;;;;;-143.57;100.00;51020.72;5059484;28;19935;-65
2022/11/02 08:55:58;;;;;;;;;;;;;;;-143.57;100.00;51004.81;5063314;28;19990;-65
2022/11/02 08:58:24;;;;;;;;;;;;;;;-143.57;100.00;50992.88;5059528;28;19931;-66
2022/11/02 09:00:52;;;;;;;;;;;;;;;-143.57;100.00;51010.78;5062567;28;19960;-65
2022/11/02 09:03:19;;;;;;;;;;;;;;;-143.57;93.96;50990.91;5057450;28;19929;-65
2022/11/02 09:05:56;;;;;;;;;;;;;;;-143.57;91.82;51024.69;5057586;28;20023;-65
2022/11/02 09:08:23;;;;;;;;;;;;;;;-143.57;92.17;51036.63;5056721;28;19932;-65
2022/11/02 09:10:56;;;;;;;;;;;;;;;-143.57;91.85;50992.88;5060668;28;20309;-65
2022/11/02 09:13:24;;;;;;;;;;;;;;;-143.57;90.83;50996.84;5057979;28;19924;-65
2022/11/02 09:15:52;;;;;;;;;;;;;;;-143.57;62.64;50984.94;5059556;28;19928;-65
2022/11/02 09:18:19;;;;;;;;;;;;;;;-143.57;61.83;51028.66;5058218;28;19932;-64
2022/11/02 09:20:47;;;;;;;;;;;;;;;-143.57;62.38;51032.63;5062317;28;19968;-64
2022/11/02 09:23:14;;;;;;;;;;;;;;;-143.57;61.16;51034.63;5056203;28;19932;-64
2022/11/02 09:25:41;;;;;;;;;;;;;;;-143.57;60.91;51004.81;5055559;28;20003;-64
2022/11/02 09:28:08;;;;;;;;;;;;;;;-143.57;60.66;50996.84;5057820;28;20254;-64
2022/11/02 09:30:35;;;;;;;;;;;;;;;-143.57;60.26;51038.59;5058576;28;19928;-64
2022/11/02 09:33:05;;;;;;;;;;;;;;;-143.57;58.86;50988.91;5059928;28;20061;-64
2022/11/02 09:35:33;;;;;;;;;;;;;;;-143.57;57.54;51032.63;5060749;28;20022;-65
2022/11/02 09:38:00;;;;;;;;;;;;;;;-143.57;57.37;51036.63;5059480;28;20548;-64
2022/11/02 09:40:29;;;;;;;;;;;;;;;-143.57;56.02;51018.72;5061929;28;20108;-64
2022/11/02 09:43:07;;;;;;;;;;;;;;;-143.57;54.91;51008.78;5059720;28;19962;-64
2022/11/02 09:45:54;;;;;;;;;;;;;;;-143.57;55.33;51000.84;5060574;28;20046;-64
2022/11/02 09:48:25;;;;;;;;;;;;;;;-143.57;54.03;51000.84;5052820;28;20372;-65
2022/11/02 09:51:02;;;;;;;;;;;;;;;-143.57;53.55;51016.72;5060834;28;19935;-64
2022/11/02 09:53:32;;;;;;;;;;;;;;;-143.57;51.97;50988.91;5063257;28;20376;-65
2022/11/02 09:55:59;;;;;;;;;;;;;;;-143.57;52.00;50996.84;5059580;28;20614;-64
2022/11/02 09:58:29;;;;;;;;;;;;;;;-143.57;50.45;50990.91;5063054;28;19928;-65
2022/11/02 10:00:58;;;;;;;;;;;;;;;-143.57;49.76;51012.75;5060316;28;20429;-64
2022/11/02 10:03:30;;;;;;;;;;;;;;;-143.57;49.23;51020.72;5067145;28;19929;-64
2022/11/02 10:06:07;;;;;;;;;;;;;;;-143.57;48.35;51016.72;5060194;28;20445;-65
2022/11/02 10:08:49;;;;;;;;;;;;;;;-143.57;48.05;51000.84;5059107;28;19929;-65
2022/11/02 10:11:34;;;;;;;;;;;;;;;-143.57;47.95;50980.97;5058921;28;19925;-65
2022/11/02 10:14:11;;;;;;;;;;;;;;;-143.57;48.19;50998.84;5064941;28;20643;-65
2022/11/02 10:16:58;;;;;;;;;;;;;;;-143.57;47.51;51020.72;5060157;28;19959;-65
2022/11/02 10:19:25;;;;;;;;;;;;;;;-143.57;47.19;50980.97;5070802;28;19928;-65
2022/11/02 10:21:57;;;;;;;;;;;;;;;-143.57;46.46;51080.34;5058217;28;19924;-64
2022/11/02 10:24:26;;;;;;;;;;;;;;;-143.57;46.05;50996.84;5061289;28;20018;-66
2022/11/02 10:26:55;;;;;;;;;;;;;;;-143.57;45.19;50994.88;5060819;28;19931;-65
2022/11/02 10:29:29;;;;;;;;;;;;;;;-143.57;44.82;50976.97;5062999;28;19932;-65
2022/11/02 10:31:55;;;;;;;;;;;;;;;-143.57;44.88;50992.88;5064464;28;19928;-65
2022/11/02 10:34:26;;;;;;;;;;;;;;;-143.57;43.87;51010.78;5061180;28;19929;-65
2022/11/02 10:37:02;;;;;;;;;;;;;;;-143.57;43.21;50992.88;5062116;28;20019;-65
2022/11/02 10:39:33;;;;;;;;;;;;;;;-143.57;42.98;51000.84;5058872;28;19983;-65
2022/11/02 10:42:10;;;;;;;;;;;;;;;-143.57;42.26;51032.63;5062915;28;20023;-65
2022/11/02 10:44:56;;;;;;;;;;;;;;;-143.57;41.59;51008.78;5058874;28;20551;-64
2022/11/02 10:47:24;;;;;;;;;;;;;;;-143.57;40.10;51040.59;5064113;28;19932;-65
2022/11/02 10:50:01;;;;;;;;;;;;;;;-143.57;39.96;50992.88;5060043;28;19978;-65
2022/11/02 10:52:32;;;;;;;;;;;;;;;-143.57;39.55;50982.94;5060447;28;19935;-65
2022/11/02 10:54:59;;;;;;;;;;;;;;;-143.57;38.75;50998.84;5058393;28;19932;-65
2022/11/02 10:57:26;;;;;;;;;;;;;;;-143.57;38.57;51008.78;5065255;28;20002;-65
2022/11/02 11:00:11;;;;;;;;;;;;;;;-143.57;38.80;51032.63;5060276;28;19935;-65
2022/11/02 11:02:38;;;;;;;;;;;;;;;-143.57;38.64;50996.84;5065526;28;20405;-65
2022/11/02 11:05:12;;;;;;;;;;;;;;;-143.57;38.23;51004.81;5059091;28;19924;-65
2022/11/02 11:07:42;;;;;;;;;;;;;;;-143.57;37.80;50998.84;5063584;28;20699;-65
2022/11/02 11:10:14;;;;;;;;;;;;;;;-143.57;36.70;51016.72;5059884;28;20074;-65
2022/11/02 11:12:41;;;;;;;;;;;;;;;-143.57;36.18;51016.72;5064129;28;21112;-65
2022/11/02 11:15:22;;;;;;;;;;;;;;;-143.57;36.24;50980.97;5060751;28;19932;-65
2022/11/02 11:18:09;;;;;;;;;;;;;;;-143.57;35.72;50988.91;5061845;28;19936;-65
2022/11/02 11:20:57;;;;;;;;;;;;;;;-143.57;34.94;51004.81;5059075;28;19928;-67
2022/11/02 11:23:24;;;;;;;;;;;;;;;-143.57;35.26;51008.78;5060680;28;20581;-65
2022/11/02 11:25:54;;;;;;;;;;;;;;;-143.57;35.38;50978.97;5059614;28;19928;-66
2022/11/02 11:28:28;;;;;;;;;;;;;;;-143.57;34.59;50986.91;5059402;28;20510;-66
2022/11/02 11:31:04;;;;;;;;;;;;;;;-143.57;34.88;51024.69;5058264;28;19928;-66
2022/11/02 11:33:32;;;;;;;;;;;;;;;-143.57;34.13;51008.78;5061305;28;19940;-66
2022/11/02 11:35:59;;;;;;;;;;;;;;;-143.57;34.25;50988.91;5060331;28;19959;-66
2022/11/02 11:38:26;;;;;;;;;;;;;;;-143.57;34.07;50961.06;5062415;28;20605;-65
2022/11/02 11:40:55;;;;;;;;;;;;;;;-143.57;33.67;51012.75;5061671;28;19963;-66
2022/11/02 11:43:24;;;;;;;;;;;;;;;-143.57;33.35;51008.78;5058839;28;20338;-66
2022/11/02 11:45:56;;;;;;;;;;;;;;;-143.57;32.87;50998.84;5058407;28;19986;-66
2022/11/02 11:48:34;;;;;;;;;;;;;;;-143.57;32.33;50976.97;5060062;28;19928;-66
2022/11/02 11:51:02;;;;;;;;;;;;;;;-143.57;32.29;51012.75;5059179;28;19967;-66
2022/11/02 11:53:29;;;;;;;;;;;;;;;-143.57;31.73;50992.88;5057112;28;20012;-66
2022/11/02 11:55:57;;;;;;;;;;;;;;;-143.57;31.59;51014.75;5061880;28;19920;-66
2022/11/02 11:58:25;;;;;;;;;;;;;;;-143.57;30.89;50990.91;5057240;28;19928;-66
2022/11/02 12:01:02;;;;;;;;;;;;;;;-143.57;31.02;50988.91;5059450;28;20472;-66
2022/11/02 12:03:48;;;;;;;;;;;;;;;-143.57;30.57;50984.94;5056887;28;19932;-66
2022/11/02 12:06:21;;;;;;;;;;;;;;;-143.57;30.25;50984.94;5067445;28;20352;-66
2022/11/02 12:08:56;;;;;;;;;;;;;;;-143.57;30.31;51004.81;5057443;28;19936;-66
2022/11/02 12:11:45;;;;;;;;;;;;;;;-143.57;30.36;50990.91;5060401;28;19932;-66
2022/11/02 12:14:27;;;;;;;;;;;;;;;-143.57;29.99;50996.84;5057631;28;19928;-66
2022/11/02 12:17:06;;;;;;;;;;;;;;;-143.57;29.03;50996.84;5060799;28;19990;-65
2022/11/02 12:19:32;;;;;;;;;;;;;;;-143.57;28.13;51000.84;5058753;28;19925;-66
2022/11/02 12:22:04;;;;;;;;;;;;;;;-143.57;28.03;50953.13;5061395;28;20015;-66
2022/11/02 12:24:31;;;;;;;;;;;;;;;-143.57;27.52;51012.75;5056936;28;19936;-66
2022/11/02 12:27:14;;;;;;;;;;;;;;;-143.57;26.78;50949.16;5057133;28;19928;-66
2022/11/02 12:29:40;;;;;;;;;;;;;;;-143.57;26.31;50945.19;5056255;28;20451;-66
2022/11/02 12:32:13;;;;;;;;;;;;;;;-143.57;25.42;50951.13;5059699;28;19960;-66
2022/11/02 12:34:40;;;;;;;;;;;;;;;-143.57;25.19;50965.06;5060370;28;19940;-66
2022/11/02 12:37:06;;;;;;;;;;;;;;;-143.57;23.51;50976.97;5059001;28;19932;-66
2022/11/02 12:39:56;;;;;;;;;;;;;;;-143.57;23.20;50953.13;5058003;28;20375;-66
2022/11/02 12:42:22;;;;;;;;;;;;;;;-143.57;22.48;50949.16;5061284;28;19932;-66
2022/11/02 12:44:55;;;;;;;;;;;;;;;-143.57;22.37;50929.28;5057518;28;19978;-66
2022/11/02 12:47:41;;;;;;;;;;;;;;;-143.57;22.46;50953.13;5057757;28;19942;-66
2022/11/02 12:50:16;;;;;;;;;;;;;;;-143.57;22.70;50951.13;5059547;28;19928;-65